Time;durP1;ratioP1;P1;durP2;ratioP2;P2;SDS_P1;SDS_P2;PMS_P1;PMS_P2;Temp;Humidity;BMP_temperature;BMP_pressure;BME280_temperature;BME280_humidity;BME280_pressure;Samples;Min_cycle;Max_cycle;Signal;HPM_P1;HPM_P2
2023/07/03 00:01:51;;;;;;;24.48;22.27;;;;;;;;;;5051445;28;21264;-78
2023/07/03 00:04:17;;;;;;;24.42;21.92;;;;;;;;;;5051628;28;20028;-75
2023/07/03 00:06:45;;;;;;;25.30;22.67;;;;;;;;;;5051294;28;20052;-76
2023/07/03 00:09:11;;;;;;;24.73;22.42;;;;;;;;;;5050209;28;20024;-76
2023/07/03 00:11:36;;;;;;;25.80;23.52;;;;;;;;;;5051566;28;20482;-78
2023/07/03 00:14:02;;;;;;;23.88;21.67;;;;;;;;;;5050730;28;20044;-78
2023/07/03 00:16:27;;;;;;;25.15;22.83;;;;;;;;;;5050546;28;20025;-74
2023/07/03 00:18:53;;;;;;;24.58;22.38;;;;;;;;;;5051660;28;20418;-77
2023/07/03 00:21:18;;;;;;;25.58;23.27;;;;;;;;;;5052037;28;20062;-76
2023/07/03 00:23:44;;;;;;;24.40;22.17;;;;;;;;;;5050123;28;20035;-76
2023/07/03 00:26:09;;;;;;;24.83;22.55;;;;;;;;;;5050839;28;20025;-79
2023/07/03 00:28:35;;;;;;;24.15;21.95;;;;;;;;;;5051085;28;20028;-76
2023/07/03 00:31:01;;;;;;;24.45;22.15;;;;;;;;;;5066709;28;20352;-76
2023/07/03 00:33:26;;;;;;;25.67;22.95;;;;;;;;;;5048996;28;20021;-77
2023/07/03 00:35:52;;;;;;;24.08;21.58;;;;;;;;;;5052098;28;20032;-77
2023/07/03 00:38:17;;;;;;;25.83;23.15;;;;;;;;;;5053199;28;20063;-77
2023/07/03 00:40:42;;;;;;;25.38;22.60;;;;;;;;;;5056283;28;20757;-76
2023/07/03 00:43:08;;;;;;;25.20;22.73;;;;;;;;;;5065071;28;20036;-78
2023/07/03 00:45:34;;;;;;;24.60;22.17;;;;;;;;;;5070610;28;20021;-76
2023/07/03 00:48:00;;;;;;;24.48;22.02;;;;;;;;;;5063357;28;20035;-77
2023/07/03 00:50:25;;;;;;;23.75;21.55;;;;;;;;;;5062775;28;20032;-77
2023/07/03 00:52:59;;;;;;;23.48;21.17;;;;;;;;;;5053097;28;20371;-77
2023/07/03 00:55:24;;;;;;;23.05;20.75;;;;;;;;;;5064276;28;20032;-77
2023/07/03 00:57:50;;;;;;;23.85;21.45;;;;;;;;;;5064735;28;20036;-77
2023/07/03 01:00:16;;;;;;;24.25;21.77;;;;;;;;;;5062758;28;20047;-76
2023/07/03 01:02:41;;;;;;;23.20;20.65;;;;;;;;;;5064238;28;20059;-76
2023/07/03 01:05:14;;;;;;;23.95;21.63;;;;;;;;;;5064393;28;20052;-76
2023/07/03 01:07:40;;;;;;;23.20;20.73;;;;;;;;;;5051321;28;20110;-76
2023/07/03 01:10:07;;;;;;;22.15;19.88;;;;;;;;;;5052910;28;20028;-76
2023/07/03 01:12:35;;;;;;;23.15;20.92;;;;;;;;;;5062848;28;20029;-77
2023/07/03 01:15:03;;;;;;;23.45;21.25;;;;;;;;;;5063493;28;20163;-77
2023/07/03 01:17:30;;;;;;;24.08;21.88;;;;;;;;;;5063606;28;20036;-77
2023/07/03 01:19:57;;;;;;;24.48;22.23;;;;;;;;;;5064201;28;20028;-77
2023/07/03 01:22:24;;;;;;;24.17;21.88;;;;;;;;;;5053714;28;20028;-80
2023/07/03 01:24:52;;;;;;;23.42;21.33;;;;;;;;;;5050969;28;20108;-77
2023/07/03 01:27:19;;;;;;;23.88;21.63;;;;;;;;;;5064111;28;20032;-77
2023/07/03 01:29:44;;;;;;;26.08;22.25;;;;;;;;;;5053524;28;20025;-77
2023/07/03 01:32:11;;;;;;;27.30;22.92;;;;;;;;;;5064023;28;20025;-76
2023/07/03 01:34:39;;;;;;;24.42;21.92;;;;;;;;;;5063032;28;20115;-77
2023/07/03 01:37:05;;;;;;;22.90;20.70;;;;;;;;;;5055430;28;20032;-77
2023/07/03 01:39:31;;;;;;;25.20;22.60;;;;;;;;;;5060277;28;20032;-77
2023/07/03 01:41:57;;;;;;;23.55;21.08;;;;;;;;;;5063615;28;20097;-75
2023/07/03 01:44:22;;;;;;;25.52;23.00;;;;;;;;;;5057396;28;20035;-77
2023/07/03 01:46:48;;;;;;;25.08;22.73;;;;;;;;;;5059190;28;20025;-78
2023/07/03 01:49:14;;;;;;;24.42;22.05;;;;;;;;;;5051682;28;20162;-78
2023/07/03 01:51:47;;;;;;;24.80;22.50;;;;;;;;;;5054259;28;20376;-77
2023/07/03 01:54:18;;;;;;;24.70;22.15;;;;;;;;;;5057751;28;20024;-76
2023/07/03 01:56:45;;;;;;;23.33;21.13;;;;;;;;;;5063989;28;20301;-76
2023/07/03 01:59:12;;;;;;;25.67;22.73;;;;;;;;;;5063433;28;20451;-78
2023/07/03 02:01:42;;;;;;;25.38;23.02;;;;;;;;;;5052143;28;20043;-77
2023/07/03 02:04:11;;;;;;;23.08;20.98;;;;;;;;;;5064177;28;20082;-76
2023/07/03 02:06:39;;;;;;;21.63;19.60;;;;;;;;;;5056559;28;20106;-78
2023/07/03 02:09:07;;;;;;;22.77;20.67;;;;;;;;;;5057432;28;20039;-76
2023/07/03 02:11:33;;;;;;;24.25;21.90;;;;;;;;;;5063321;28;20120;-75
2023/07/03 02:13:59;;;;;;;23.60;21.30;;;;;;;;;;5062618;28;20356;-76
2023/07/03 02:16:24;;;;;;;22.27;20.23;;;;;;;;;;5062234;28;20028;-77
2023/07/03 02:18:50;;;;;;;23.38;21.23;;;;;;;;;;5056856;28;20187;-74
2023/07/03 02:21:16;;;;;;;23.88;21.55;;;;;;;;;;5054078;28;20491;-75
2023/07/03 02:23:42;;;;;;;24.25;22.15;;;;;;;;;;5052815;28;20123;-77
2023/07/03 02:26:07;;;;;;;23.88;21.63;;;;;;;;;;5063391;28;20020;-75
2023/07/03 02:28:33;;;;;;;22.98;20.88;;;;;;;;;;5057722;28;20097;-76
2023/07/03 02:30:59;;;;;;;24.88;22.33;;;;;;;;;;5056052;28;20428;-76
2023/07/03 02:33:24;;;;;;;23.45;21.20;;;;;;;;;;5063439;28;20020;-76
2023/07/03 02:35:50;;;;;;;24.27;21.73;;;;;;;;;;5062513;28;20089;-78
2023/07/03 02:38:15;;;;;;;24.00;21.58;;;;;;;;;;5048421;28;20051;-76
2023/07/03 02:40:41;;;;;;;23.13;20.92;;;;;;;;;;5053153;28;20122;-75
2023/07/03 02:43:07;;;;;;;22.73;20.63;;;;;;;;;;5061763;28;20032;-75
2023/07/03 02:45:35;;;;;;;21.55;19.58;;;;;;;;;;5062977;28;20032;-77
2023/07/03 02:48:00;;;;;;;22.88;20.73;;;;;;;;;;5062594;28;20032;-74
2023/07/03 02:50:26;;;;;;;24.00;21.63;;;;;;;;;;5062603;28;20028;-75
2023/07/03 02:52:51;;;;;;;23.15;20.83;;;;;;;;;;5050665;28;20028;-77
2023/07/03 02:55:17;;;;;;;21.45;19.65;;;;;;;;;;5062161;28;20115;-77
2023/07/03 02:57:42;;;;;;;22.17;19.88;;;;;;;;;;5061893;28;20112;-77
2023/07/03 03:00:07;;;;;;;22.50;20.23;;;;;;;;;;5056802;28;21438;-78
2023/07/03 03:02:33;;;;;;;21.55;19.58;;;;;;;;;;5054638;28;20504;-75
2023/07/03 03:04:58;;;;;;;21.85;19.60;;;;;;;;;;5061100;28;20078;-76
2023/07/03 03:07:23;;;;;;;23.02;21.00;;;;;;;;;;5051900;28;20053;-75
2023/07/03 03:09:49;;;;;;;23.88;21.45;;;;;;;;;;5058814;28;20123;-76
2023/07/03 03:12:15;;;;;;;22.10;20.08;;;;;;;;;;5062288;28;20040;-77
2023/07/03 03:14:41;;;;;;;22.33;20.20;;;;;;;;;;5062708;28;20036;-75
2023/07/03 03:17:06;;;;;;;20.95;19.05;;;;;;;;;;5062307;28;20039;-76
2023/07/03 03:19:31;;;;;;;21.33;19.10;;;;;;;;;;5049834;28;20023;-75
2023/07/03 03:21:57;;;;;;;21.10;19.23;;;;;;;;;;5053847;28;20462;-76
2023/07/03 03:24:22;;;;;;;23.15;19.52;;;;;;;;;;5056228;28;20090;-76
2023/07/03 03:26:47;;;;;;;22.85;18.05;;;;;;;;;;5061804;28;20167;-78
2023/07/03 03:29:13;;;;;;;22.00;19.70;;;;;;;;;;5053990;28;20078;-77
2023/07/03 03:31:38;;;;;;;20.92;18.77;;;;;;;;;;5058571;28;20122;-76
2023/07/03 03:34:03;;;;;;;21.02;19.17;;;;;;;;;;5054876;28;20035;-77
2023/07/03 03:36:32;;;;;;;27.90;19.48;;;;;;;;;;5054901;28;20032;-77
2023/07/03 03:38:58;;;;;;;21.08;18.75;;;;;;;;;;5046379;28;20956;-76
2023/07/03 03:41:23;;;;;;;23.83;19.27;;;;;;;;;;5043791;28;20049;-78
2023/07/03 03:43:49;;;;;;;20.33;18.33;;;;;;;;;;5043492;28;20028;-78
2023/07/03 03:46:14;;;;;;;20.23;18.38;;;;;;;;;;5043688;28;20016;-77
2023/07/03 03:48:39;;;;;;;22.17;20.17;;;;;;;;;;5044454;28;20021;-76
2023/07/03 03:51:05;;;;;;;20.27;18.23;;;;;;;;;;5044207;28;20078;-77
2023/07/03 03:53:30;;;;;;;20.20;18.30;;;;;;;;;;5042587;28;20025;-76
2023/07/03 03:55:55;;;;;;;23.40;19.77;;;;;;;;;;5043698;28;20090;-77
2023/07/03 03:58:21;;;;;;;20.58;18.48;;;;;;;;;;5043592;28;20059;-76
2023/07/03 04:00:47;;;;;;;19.15;17.25;;;;;;;;;;5037752;28;20033;-77
2023/07/03 04:03:13;;;;;;;20.48;18.67;;;;;;;;;;5044358;28;20487;-79
2023/07/03 04:05:39;;;;;;;20.70;18.42;;;;;;;;;;5044899;28;20020;-76
2023/07/03 04:08:04;;;;;;;22.48;18.05;;;;;;;;;;5040157;28;20480;-77
2023/07/03 04:10:29;;;;;;;19.88;17.77;;;;;;;;;;5043943;28;20103;-75
2023/07/03 04:12:55;;;;;;;22.35;19.50;;;;;;;;;;5045811;28;20020;-75
2023/07/03 04:15:23;;;;;;;20.90;18.30;;;;;;;;;;5052564;28;20682;-77
2023/07/03 04:17:49;;;;;;;20.75;18.73;;;;;;;;;;5061704;28;20036;-76
2023/07/03 04:20:14;;;;;;;21.63;19.35;;;;;;;;;;5061303;28;20044;-77
2023/07/03 04:22:40;;;;;;;19.75;18.05;;;;;;;;;;5050755;28;20328;-77
2023/07/03 04:25:07;;;;;;;21.80;19.75;;;;;;;;;;5056347;28;20351;-75
2023/07/03 04:27:32;;;;;;;22.17;20.15;;;;;;;;;;5061820;28;20020;-76
2023/07/03 04:29:58;;;;;;;22.85;20.50;;;;;;;;;;5060322;28;20478;-75
2023/07/03 04:32:23;;;;;;;21.40;19.48;;;;;;;;;;5060920;28;20100;-77
2023/07/03 04:34:48;;;;;;;20.95;18.90;;;;;;;;;;5048516;28;20107;-75
2023/07/03 04:37:14;;;;;;;22.63;18.13;;;;;;;;;;5060591;28;20079;-76
2023/07/03 04:39:39;;;;;;;20.65;18.83;;;;;;;;;;5064426;28;20021;-76
2023/07/03 04:42:07;;;;;;;20.38;18.13;;;;;;;;;;5064202;28;20036;-78
2023/07/03 04:44:33;;;;;;;22.27;20.27;;;;;;;;;;5064184;28;20434;-78
2023/07/03 04:47:02;;;;;;;21.33;19.33;;;;;;;;;;5064002;28;20028;-77
2023/07/03 04:49:29;;;;;;;20.90;19.00;;;;;;;;;;5063970;28;20121;-75
2023/07/03 04:51:54;;;;;;;22.33;20.30;;;;;;;;;;5062184;28;20039;-75
2023/07/03 04:54:20;;;;;;;21.38;19.40;;;;;;;;;;5046263;28;20443;-77
2023/07/03 04:56:46;;;;;;;20.55;18.75;;;;;;;;;;5048676;28;20166;-78
2023/07/03 04:59:12;;;;;;;19.67;17.95;;;;;;;;;;5049220;28;20047;-78
2023/07/03 05:01:37;;;;;;;20.02;17.98;;;;;;;;;;5051738;28;20029;-79
2023/07/03 05:04:03;;;;;;;21.23;19.00;;;;;;;;;;5050366;28;20645;-77
2023/07/03 05:06:29;;;;;;;19.38;17.52;;;;;;;;;;5060941;28;20083;-77
2023/07/03 05:08:54;;;;;;;20.08;18.23;;;;;;;;;;5065301;28;20031;-79
2023/07/03 05:11:19;;;;;;;19.92;18.08;;;;;;;;;;5064071;28;20033;-79
2023/07/03 05:13:45;;;;;;;21.27;19.25;;;;;;;;;;5058822;28;20123;-79
2023/07/03 05:16:10;;;;;;;20.50;18.70;;;;;;;;;;5057569;28;20097;-77
2023/07/03 05:18:35;;;;;;;21.50;19.60;;;;;;;;;;5063993;28;20028;-76
2023/07/03 05:21:01;;;;;;;21.30;19.52;;;;;;;;;;5064536;28;20032;-77
2023/07/03 05:23:26;;;;;;;20.83;16.77;;;;;;;;;;5063530;28;20416;-76
2023/07/03 05:25:52;;;;;;;28.45;20.40;;;;;;;;;;5064505;28;20458;-76
2023/07/03 05:28:17;;;;;;;21.10;18.73;;;;;;;;;;5062910;28;20024;-75
2023/07/03 05:30:42;;;;;;;35.42;19.65;;;;;;;;;;5064337;28;20046;-82
2023/07/03 05:33:10;;;;;;;30.75;19.58;;;;;;;;;;5064817;28;20016;-83
2023/07/03 05:35:36;;;;;;;35.95;20.45;;;;;;;;;;5062310;28;20036;-77
2023/07/03 05:38:01;;;;;;;27.83;20.10;;;;;;;;;;5060907;28;20039;-77
2023/07/03 05:40:27;;;;;;;22.80;18.17;;;;;;;;;;5062693;28;20224;-78
2023/07/03 05:42:53;;;;;;;26.30;17.27;;;;;;;;;;5062379;28;20024;-79
2023/07/03 05:45:18;;;;;;;18.17;16.33;;;;;;;;;;5064008;28;20352;-80
2023/07/03 05:47:43;;;;;;;25.05;17.63;;;;;;;;;;5065970;28;20066;-80
2023/07/03 05:50:09;;;;;;;18.00;16.23;;;;;;;;;;5061849;28;20416;-81
2023/07/03 05:52:36;;;;;;;64.72;20.15;;;;;;;;;;5063548;28;20444;-78
2023/07/03 05:55:01;;;;;;;35.42;17.42;;;;;;;;;;5064498;28;20099;-80
2023/07/03 05:57:26;;;;;;;45.17;17.58;;;;;;;;;;5064146;28;20546;-80
2023/07/03 05:59:53;;;;;;;17.85;15.75;;;;;;;;;;5063847;28;20108;-78
2023/07/03 06:02:19;;;;;;;22.38;15.57;;;;;;;;;;5062709;28;20089;-83
2023/07/03 06:04:44;;;;;;;16.65;15.13;;;;;;;;;;5056682;28;20121;-78
2023/07/03 06:07:10;;;;;;;15.43;14.05;;;;;;;;;;5052066;28;20055;-77
2023/07/03 06:09:35;;;;;;;14.43;13.13;;;;;;;;;;5062834;28;20470;-78
2023/07/03 06:12:01;;;;;;;14.52;13.20;;;;;;;;;;5063013;28;20043;-78
2023/07/03 06:14:28;;;;;;;14.60;12.68;;;;;;;;;;5062697;28;20027;-77
2023/07/03 06:16:54;;;;;;;14.20;12.95;;;;;;;;;;5059707;28;20093;-76
2023/07/03 06:19:19;;;;;;;14.30;13.07;;;;;;;;;;5060960;28;20119;-77
2023/07/03 06:21:45;;;;;;;15.00;13.65;;;;;;;;;;5061924;28;21093;-78
2023/07/03 06:24:11;;;;;;;14.65;13.15;;;;;;;;;;5060089;28;20872;-77
2023/07/03 06:26:39;;;;;;;14.43;13.13;;;;;;;;;;5061405;28;20056;-76
2023/07/03 06:29:05;;;;;;;13.05;11.95;;;;;;;;;;5061891;28;20024;-79
2023/07/03 06:31:30;;;;;;;14.00;12.60;;;;;;;;;;5061582;28;20094;-79
2023/07/03 06:33:56;;;;;;;15.10;12.57;;;;;;;;;;5060334;28;20466;-77
2023/07/03 06:36:21;;;;;;;13.73;12.45;;;;;;;;;;5061074;28;20020;-78
2023/07/03 06:38:50;;;;;;;14.13;12.80;;;;;;;;;;5061803;28;20024;-76
2023/07/03 06:41:16;;;;;;;14.32;12.93;;;;;;;;;;5060367;28;20033;-76
2023/07/03 06:43:41;;;;;;;12.23;11.15;;;;;;;;;;5061553;28;20083;-75
2023/07/03 06:46:06;;;;;;;13.73;12.32;;;;;;;;;;5061449;28;20130;-76
2023/07/03 06:48:32;;;;;;;13.75;12.45;;;;;;;;;;5061390;28;20058;-75
2023/07/03 06:51:04;;;;;;;12.57;11.45;;;;;;;;;;5061052;28;20100;-78
2023/07/03 06:53:30;;;;;;;12.77;11.65;;;;;;;;;;5059818;28;20462;-77
2023/07/03 06:55:57;;;;;;;13.05;11.75;;;;;;;;;;5060959;28;20085;-78
2023/07/03 06:58:22;;;;;;;11.88;10.77;;;;;;;;;;5061046;28;20032;-76
2023/07/03 07:00:47;;;;;;;12.82;11.65;;;;;;;;;;5060803;28;20021;-78
2023/07/03 07:03:13;;;;;;;12.02;10.93;;;;;;;;;;5061638;28;20162;-78
2023/07/03 07:05:38;;;;;;;13.10;11.60;;;;;;;;;;5061934;28;20117;-76
2023/07/03 07:08:03;;;;;;;12.50;10.30;;;;;;;;;;5061715;28;20032;-78
2023/07/03 07:10:29;;;;;;;12.30;11.20;;;;;;;;;;5061544;28;20043;-76
2023/07/03 07:12:54;;;;;;;11.90;10.63;;;;;;;;;;5060750;28;20024;-76
2023/07/03 07:15:19;;;;;;;11.77;10.68;;;;;;;;;;5061390;28;20031;-77
2023/07/03 07:17:45;;;;;;;11.98;10.77;;;;;;;;;;5061353;28;20056;-76
2023/07/03 07:20:10;;;;;;;11.75;10.70;;;;;;;;;;5060697;28;20097;-76
2023/07/03 07:22:36;;;;;;;11.57;10.55;;;;;;;;;;5061906;28;20115;-76
2023/07/03 07:25:01;;;;;;;12.45;9.77;;;;;;;;;;5060350;28;20068;-76
2023/07/03 07:27:26;;;;;;;11.20;10.20;;;;;;;;;;5059953;28;20021;-75
2023/07/03 07:29:51;;;;;;;11.85;10.27;;;;;;;;;;5059050;28;20477;-76
2023/07/03 07:32:17;;;;;;;10.43;9.30;;;;;;;;;;5061700;28;20470;-75
2023/07/03 07:34:42;;;;;;;10.57;9.60;;;;;;;;;;5060333;28;20416;-81
2023/07/03 07:37:07;;;;;;;10.45;9.45;;;;;;;;;;5060557;28;20024;-78
2023/07/03 07:39:33;;;;;;;10.15;9.32;;;;;;;;;;5060142;28;20013;-78
2023/07/03 07:41:58;;;;;;;13.35;9.20;;;;;;;;;;5058223;28;20037;-78
2023/07/03 07:44:26;;;;;;;9.05;7.97;;;;;;;;;;5057910;28;20040;-78
2023/07/03 07:46:51;;;;;;;13.55;9.70;;;;;;;;;;5061567;28;20016;-76
2023/07/03 07:49:17;;;;;;;9.77;8.77;;;;;;;;;;5060544;28;20427;-77
2023/07/03 07:51:42;;;;;;;8.68;7.88;;;;;;;;;;5061227;28;20358;-79
2023/07/03 07:54:07;;;;;;;8.82;7.93;;;;;;;;;;5061071;28;20055;-77
2023/07/03 07:56:33;;;;;;;9.40;7.68;;;;;;;;;;5062008;28;20040;-78
2023/07/03 07:58:58;;;;;;;8.05;7.35;;;;;;;;;;5060505;28;20114;-77
2023/07/03 08:01:23;;;;;;;7.72;7.03;;;;;;;;;;5061469;28;20032;-78
2023/07/03 08:03:49;;;;;;;7.90;7.20;;;;;;;;;;5061742;28;20105;-78
2023/07/03 08:06:15;;;;;;;7.90;7.20;;;;;;;;;;5061192;28;20063;-80
2023/07/03 08:08:40;;;;;;;8.05;6.82;;;;;;;;;;5060853;28;20060;-75
2023/07/03 08:11:07;;;;;;;7.55;6.85;;;;;;;;;;5058561;28;20060;-77
2023/07/03 08:13:33;;;;;;;7.03;6.43;;;;;;;;;;5063859;28;20104;-78
2023/07/03 08:15:58;;;;;;;7.45;6.85;;;;;;;;;;5064842;28;20130;-79
2023/07/03 08:18:24;;;;;;;11.25;6.85;;;;;;;;;;5063053;28;20481;-74
2023/07/03 08:20:50;;;;;;;6.40;5.75;;;;;;;;;;5063374;28;20037;-75
2023/07/03 08:23:15;;;;;;;7.97;6.53;;;;;;;;;;5064978;28;20026;-76
2023/07/03 08:25:41;;;;;;;12.85;5.75;;;;;;;;;;5064242;28;20025;-77
2023/07/03 08:28:06;;;;;;;6.05;5.55;;;;;;;;;;5063269;28;20085;-77
2023/07/03 08:30:32;;;;;;;7.00;5.90;;;;;;;;;;5062856;28;20071;-77
2023/07/03 08:32:57;;;;;;;7.97;5.50;;;;;;;;;;5064901;28;20123;-77
2023/07/03 08:35:23;;;;;;;5.80;5.40;;;;;;;;;;5063750;28;20040;-77
2023/07/03 08:37:48;;;;;;;6.45;5.57;;;;;;;;;;5064921;28;20040;-78
2023/07/03 08:40:18;;;;;;;6.18;5.60;;;;;;;;;;5062638;28;20024;-76
2023/07/03 08:42:55;;;;;;;5.88;5.38;;;;;;;;;;5063979;28;20024;-77
2023/07/03 08:45:34;;;;;;;5.80;5.30;;;;;;;;;;5064334;28;20038;-77
2023/07/03 08:48:02;;;;;;;5.75;5.25;;;;;;;;;;5061963;28;20032;-74
2023/07/03 08:50:28;;;;;;;5.80;5.30;;;;;;;;;;5064170;28;20136;-76
2023/07/03 08:52:56;;;;;;;5.60;5.10;;;;;;;;;;5063454;28;20167;-76
2023/07/03 08:55:23;;;;;;;6.55;5.25;;;;;;;;;;5063354;28;20085;-76
2023/07/03 08:57:49;;;;;;;6.57;5.88;;;;;;;;;;5063828;28;20021;-75
2023/07/03 09:00:15;;;;;;;6.25;5.75;;;;;;;;;;5060475;28;20153;-78
2023/07/03 09:02:41;;;;;;;5.47;4.97;;;;;;;;;;5051276;28;20043;-79
2023/07/03 09:05:24;;;;;;;6.20;5.40;;;;;;;;;;5050932;28;20456;-77
2023/07/03 09:07:55;;;;;;;5.65;5.15;;;;;;;;;;5049372;28;20044;-77
2023/07/03 09:10:32;;;;;;;5.30;4.80;;;;;;;;;;5049654;28;20427;-76
2023/07/03 09:13:10;;;;;;;5.85;5.28;;;;;;;;;;5049029;28;20107;-76
2023/07/03 09:15:39;;;;;;;8.80;5.10;;;;;;;;;;5049334;28;20432;-76
2023/07/03 09:18:10;;;;;;;5.57;5.15;;;;;;;;;;5052014;28;20024;-77
2023/07/03 09:20:35;;;;;;;7.05;4.82;;;;;;;;;;5050779;28;20364;-76
2023/07/03 09:23:09;;;;;;;5.78;5.28;;;;;;;;;;5050829;28;20039;-78
2023/07/03 09:25:38;;;;;;;6.13;5.63;;;;;;;;;;5051261;28;20100;-77
2023/07/03 09:28:05;;;;;;;5.18;4.68;;;;;;;;;;5049356;28;20115;-76
2023/07/03 09:30:30;;;;;;;5.38;4.88;;;;;;;;;;5049374;28;20047;-76
2023/07/03 09:32:56;;;;;;;6.35;5.13;;;;;;;;;;5050171;28;20444;-77
2023/07/03 09:35:21;;;;;;;5.22;4.80;;;;;;;;;;5053157;28;20348;-77
2023/07/03 09:37:57;;;;;;;6.03;4.88;;;;;;;;;;5058727;28;20017;-76
2023/07/03 09:40:28;;;;;;;5.55;5.00;;;;;;;;;;5050985;28;20037;-77
2023/07/03 09:42:54;;;;;;;5.10;4.70;;;;;;;;;;5047350;28;20036;-76
2023/07/03 09:45:21;;;;;;;5.03;4.53;;;;;;;;;;5049598;28;20374;-77
2023/07/03 09:47:47;;;;;;;5.13;4.63;;;;;;;;;;5050099;28;20025;-75
2023/07/03 09:50:13;;;;;;;4.93;4.43;;;;;;;;;;5050008;28;20020;-78
2023/07/03 09:52:42;;;;;;;5.20;4.70;;;;;;;;;;5050045;28;20024;-76
2023/07/03 09:55:08;;;;;;;4.30;4.00;;;;;;;;;;5057640;28;20035;-77
2023/07/03 09:57:33;;;;;;;6.50;3.90;;;;;;;;;;5048646;28;20029;-76
2023/07/03 10:00:11;;;;;;;4.13;3.72;;;;;;;;;;5050440;28;20779;-77
2023/07/03 10:02:37;;;;;;;5.55;4.07;;;;;;;;;;5050536;28;20044;-80
2023/07/03 10:05:03;;;;;;;5.47;4.32;;;;;;;;;;5048558;28;20106;-80
2023/07/03 10:07:31;;;;;;;4.90;3.70;;;;;;;;;;5049497;28;20123;-76
2023/07/03 10:09:57;;;;;;;4.25;3.83;;;;;;;;;;5056361;28;20027;-78
2023/07/03 10:12:27;;;;;;;4.10;3.78;;;;;;;;;;5049681;28;20025;-77
2023/07/03 10:14:56;;;;;;;3.22;3.00;;;;;;;;;;5050304;28;20458;-76
2023/07/03 10:17:21;;;;;;;;;;;;;;;;;;5050528;28;20031;-78
2023/07/03 10:19:49;;;;;;;4.23;3.93;;;;;;;;;;5061230;28;19916;-77
2023/07/03 10:22:16;;;;;;;5.03;4.32;;;;;;;;;;5059713;28;20063;-74
2023/07/03 10:24:42;;;;;;;4.45;4.03;;;;;;;;;;5050935;28;20032;-78
2023/07/03 10:27:08;;;;;;;4.13;3.60;;;;;;;;;;5048375;28;20651;-77
2023/07/03 10:29:39;;;;;;;4.63;3.53;;;;;;;;;;5050930;28;20024;-82
2023/07/03 10:32:08;;;;;;;4.78;3.67;;;;;;;;;;5049597;28;20432;-78
2023/07/03 10:34:42;;;;;;;3.67;3.38;;;;;;;;;;5049672;28;20891;-76
2023/07/03 10:37:10;;;;;;;3.88;3.45;;;;;;;;;;5049373;28;20016;-77
2023/07/03 10:39:41;;;;;;;6.70;4.13;;;;;;;;;;5050510;28;20032;-77
2023/07/03 10:42:10;;;;;;;3.60;3.22;;;;;;;;;;5047048;28;20032;-77
2023/07/03 10:44:38;;;;;;;5.88;5.28;;;;;;;;;;5049166;28;20570;-78
2023/07/03 10:47:03;;;;;;;4.78;4.43;;;;;;;;;;5050551;28;20084;-77
2023/07/03 10:49:30;;;;;;;5.00;4.60;;;;;;;;;;5048079;28;20479;-78
2023/07/03 10:52:08;;;;;;;5.30;4.75;;;;;;;;;;5048481;28;20032;-79
2023/07/03 10:54:56;;;;;;;5.40;4.75;;;;;;;;;;5048805;28;22451;-77
2023/07/03 10:57:22;;;;;;;;;;;;;;;;;;5045319;28;20033;-76
2023/07/03 10:59:50;;;;;;;5.03;4.63;;;;;;;;;;5047127;28;19912;-77
2023/07/03 11:02:22;;;;;;;6.00;5.50;;;;;;;;;;5048127;28;20033;-76
2023/07/03 11:04:56;;;;;;;5.60;5.10;;;;;;;;;;5046620;28;20078;-76
2023/07/03 11:07:35;;;;;;;6.32;5.72;;;;;;;;;;5046567;28;20037;-75
2023/07/03 11:10:06;;;;;;;5.75;5.28;;;;;;;;;;5047139;28;20368;-77
2023/07/03 11:12:50;;;;;;;6.18;5.65;;;;;;;;;;5046731;28;20025;-77
2023/07/03 11:15:18;;;;;;;6.32;5.50;;;;;;;;;;5047253;28;20054;-77
2023/07/03 11:17:53;;;;;;;5.70;5.20;;;;;;;;;;5045862;28;20364;-75
2023/07/03 11:20:21;;;;;;;5.32;4.93;;;;;;;;;;5057144;28;20111;-77
2023/07/03 11:22:55;;;;;;;5.68;5.18;;;;;;;;;;5061480;28;20455;-77
2023/07/03 11:25:24;;;;;;;6.68;4.72;;;;;;;;;;5061586;28;20040;-77
2023/07/03 11:27:56;;;;;;;5.95;5.20;;;;;;;;;;5050196;28;20032;-78
2023/07/03 11:30:24;;;;;;;4.82;4.53;;;;;;;;;;5048207;28;20056;-77
2023/07/03 11:32:50;;;;;;;5.18;4.68;;;;;;;;;;5049016;28;22054;-75
2023/07/03 11:35:15;;;;;;;6.10;4.72;;;;;;;;;;5048062;28;20029;-77
2023/07/03 11:37:44;;;;;;;5.22;4.72;;;;;;;;;;5047837;28;20024;-76
2023/07/03 11:40:28;;;;;;;5.13;4.70;;;;;;;;;;5047880;28;20375;-78
2023/07/03 11:43:08;;;;;;;4.22;3.92;;;;;;;;;;5052879;28;20043;-77
2023/07/03 11:45:34;;;;;;;5.32;4.28;;;;;;;;;;5054747;28;20036;-78
2023/07/03 11:47:59;;;;;;;4.40;4.10;;;;;;;;;;5057943;28;20033;-77
2023/07/03 11:50:33;;;;;;;4.90;4.57;;;;;;;;;;5049351;28;20123;-77
2023/07/03 11:52:58;;;;;;;4.57;4.15;;;;;;;;;;5047322;28;20024;-76
2023/07/03 11:55:34;;;;;;;4.63;4.22;;;;;;;;;;5046482;28;20025;-78
2023/07/03 11:57:59;;;;;;;4.72;4.22;;;;;;;;;;5047709;28;20020;-76
2023/07/03 12:00:27;;;;;;;5.30;4.43;;;;;;;;;;5047858;28;20048;-77
2023/07/03 12:02:55;;;;;;;5.30;4.20;;;;;;;;;;5048014;28;20120;-80
2023/07/03 12:05:39;;;;;;;5.28;4.07;;;;;;;;;;5059891;28;20123;-77
2023/07/03 12:08:09;;;;;;;4.78;4.38;;;;;;;;;;5051441;28;20159;-79
2023/07/03 12:10:35;;;;;;;4.63;4.20;;;;;;;;;;5048617;28;20028;-78
2023/07/03 12:13:19;;;;;;;4.40;4.00;;;;;;;;;;5046124;28;20089;-80
2023/07/03 12:15:44;;;;;;;4.53;3.92;;;;;;;;;;5048216;28;20063;-76
2023/07/03 12:18:10;;;;;;;4.28;3.88;;;;;;;;;;5047791;28;20517;-79
2023/07/03 12:20:36;;;;;;;3.75;3.45;;;;;;;;;;5046388;28;20029;-77
2023/07/03 12:23:01;;;;;;;4.60;3.55;;;;;;;;;;5046791;28;20566;-77
2023/07/03 12:25:28;;;;;;;4.22;3.70;;;;;;;;;;5047048;28;20128;-77
2023/07/03 12:27:54;;;;;;;13.15;3.72;;;;;;;;;;5046792;28;20036;-76
2023/07/03 12:30:21;;;;;;;5.55;3.65;;;;;;;;;;5047635;28;20028;-76
2023/07/03 12:32:50;;;;;;;3.78;3.47;;;;;;;;;;5046383;28;20025;-76
2023/07/03 12:35:15;;;;;;;;;;;;;;;;;;5048020;28;20089;-77
2023/07/03 12:37:51;;;;;;;3.80;3.50;;;;;;;;;;5048045;28;19908;-79
2023/07/03 12:40:17;;;;;;;5.05;3.47;;;;;;;;;;5046766;28;20039;-75
2023/07/03 12:42:46;;;;;;;3.50;3.20;;;;;;;;;;5046619;28;20020;-80
2023/07/03 12:45:18;;;;;;;3.63;3.30;;;;;;;;;;5046835;28;20028;-83
2023/07/03 12:47:44;;;;;;;3.97;3.20;;;;;;;;;;5056586;28;20332;-77
2023/07/03 12:50:14;;;;;;;3.63;3.33;;;;;;;;;;5061546;28;20029;-82
2023/07/03 12:52:39;;;;;;;3.20;2.90;;;;;;;;;;5062123;28;20669;-83
2023/07/03 12:55:06;;;;;;;3.63;2.72;;;;;;;;;;5062867;28;20025;-86
2023/07/03 12:57:34;;;;;;;3.50;3.20;;;;;;;;;;5061550;28;20047;-82
2023/07/03 13:00:00;;;;;;;7.20;3.42;;;;;;;;;;5058753;28;20039;-81
2023/07/03 13:02:26;;;;;;;3.10;2.88;;;;;;;;;;5057662;28;20052;-82
2023/07/03 13:04:56;;;;;;;4.43;3.30;;;;;;;;;;5054180;28;20040;-82
2023/07/03 13:07:22;;;;;;;3.58;3.17;;;;;;;;;;5059799;28;20083;-80
2023/07/03 13:09:48;;;;;;;2.97;2.67;;;;;;;;;;5061456;28;20111;-82
2023/07/03 13:12:20;;;;;;;3.25;2.70;;;;;;;;;;5055457;28;20036;-80
2023/07/03 13:15:09;;;;;;;3.10;2.72;;;;;;;;;;5055994;28;20360;-80
2023/07/03 13:17:39;;;;;;;3.78;3.03;;;;;;;;;;5048011;28;20049;-82
2023/07/03 13:20:16;;;;;;;4.13;2.75;;;;;;;;;;5058966;28;20047;-81
2023/07/03 13:22:52;;;;;;;2.78;2.58;;;;;;;;;;5049747;28;20029;-79
2023/07/03 13:25:23;;;;;;;4.10;2.88;;;;;;;;;;5059770;28;20356;-78
2023/07/03 13:27:49;;;;;;;3.63;2.78;;;;;;;;;;5060648;28;20067;-80
2023/07/03 13:30:26;;;;;;;2.72;2.53;;;;;;;;;;5063209;28;20051;-78
2023/07/03 13:32:52;;;;;;;4.53;2.70;;;;;;;;;;5063092;28;20035;-80
2023/07/03 13:35:25;;;;;;;2.88;2.67;;;;;;;;;;5061932;28;20031;-78
2023/07/03 13:37:50;;;;;;;4.05;2.65;;;;;;;;;;5063627;28;20139;-75
2023/07/03 13:40:16;;;;;;;2.60;2.30;;;;;;;;;;5062331;28;20063;-77
2023/07/03 13:42:41;;;;;;;3.92;2.92;;;;;;;;;;5062948;28;20035;-77
2023/07/03 13:45:07;;;;;;;3.20;2.88;;;;;;;;;;5063876;28;20340;-76
2023/07/03 13:47:33;;;;;;;2.83;2.58;;;;;;;;;;5063157;28;20025;-77
2023/07/03 13:49:58;;;;;;;2.80;2.60;;;;;;;;;;5063294;28;20029;-75
2023/07/03 13:52:24;;;;;;;2.78;2.58;;;;;;;;;;5063226;28;20017;-77
2023/07/03 13:54:49;;;;;;;3.05;2.53;;;;;;;;;;5063678;28;20024;-77
2023/07/03 13:57:14;;;;;;;2.58;2.38;;;;;;;;;;5061436;28;20039;-76
2023/07/03 13:59:40;;;;;;;2.50;2.30;;;;;;;;;;5061826;28;20390;-77
2023/07/03 14:02:05;;;;;;;3.90;2.78;;;;;;;;;;5063536;28;20143;-76
2023/07/03 14:04:31;;;;;;;2.72;2.53;;;;;;;;;;5063975;28;20059;-79
2023/07/03 14:06:56;;;;;;;3.05;2.42;;;;;;;;;;5063635;28;20076;-77
2023/07/03 14:09:21;;;;;;;3.08;2.72;;;;;;;;;;5063059;28;20369;-78
2023/07/03 14:11:47;;;;;;;2.65;2.33;;;;;;;;;;5062438;28;20028;-80
2023/07/03 14:14:12;;;;;;;3.78;2.45;;;;;;;;;;5063510;28;20028;-78
2023/07/03 14:16:37;;;;;;;2.65;2.40;;;;;;;;;;5063916;28;20440;-80
2023/07/03 14:19:03;;;;;;;3.60;2.95;;;;;;;;;;5063473;28;20037;-79
2023/07/03 14:21:28;;;;;;;2.50;2.30;;;;;;;;;;5062339;28;20415;-77
2023/07/03 14:23:54;;;;;;;2.75;2.55;;;;;;;;;;5063188;28;20424;-79
2023/07/03 14:26:19;;;;;;;2.72;2.53;;;;;;;;;;5078865;28;20414;-79
2023/07/03 14:28:45;;;;;;;3.67;2.60;;;;;;;;;;5063142;28;20440;-77
2023/07/03 14:31:12;;;;;;;2.40;2.20;;;;;;;;;;5062207;28;20032;-78